Airport View

Enter AWOS ICAO identifier for current METAR.

ex. KFNL

KCID 310352Z AUTO 04004KT 10SM CLR 17/07 A3024 RMK AO2 SLP237 T01670067 $

31 May 2020 04:32

Phone: 319-558-5153

Other Area AWOS: KIOW - KVTI - KMXO - KIIB

TAF KCID 302320Z 3100/3124 01009KT P6SM SKC FM310100 03004KT P6SM SKC FM311300 13007KT P6SM BKN150